In Rescue
 
Open Full Screen Window  High Contrast Mode
Wind Gusting 00 knots
03
July 22, 2019 10:30 PM PDT
Weather Information
Wind Direction
  070 °
Wind Speed
  03 kt (3 mph)
Wind Gust
  00 kt (0 mph)
Altimeter
30.01 in
Visibility
9 SM
Temperature
12° C
54° F
Dewpoint
10° C
50° F
Humidity
88%
1hr Rain Fall
00.00 in.
24hr Rain Fall
00.00 in.
Sky Condition
Overcast @ 300 ft
LIFR

METAR KHAF 230530Z AUTO 07003KT 9SM OVC003 12/10 A3001 RMK AO2

FAA Disclaimer: The data displayed is for advisory purposes only and is not to be used for flight planning or operations.